createdAt,value
2023-04-19T00:00:44.813Z,3.90
2023-04-19T00:03:24.382Z,3.80
2023-04-19T00:06:12.229Z,3.90
2023-04-19T00:08:49.302Z,3.70
2023-04-19T00:11:28.867Z,4.20
2023-04-19T00:14:03.257Z,3.90
2023-04-19T00:16:40.537Z,4.30
2023-04-19T00:19:16.281Z,3.80
2023-04-19T00:21:49.043Z,3.70
2023-04-19T00:24:27.427Z,4.40
2023-04-19T00:26:58.188Z,2.80
2023-04-19T00:29:37.785Z,4.00
2023-04-19T00:32:39.106Z,3.20
2023-04-19T00:35:13.794Z,3.80
2023-04-19T00:37:45.770Z,3.60
2023-04-19T00:40:51.967Z,3.80
2023-04-19T00:43:34.061Z,3.40
2023-04-19T00:46:09.091Z,3.70
2023-04-19T00:48:39.251Z,3.50
2023-04-19T00:51:11.381Z,3.40
2023-04-19T00:53:47.834Z,3.20
2023-04-19T00:56:43.039Z,3.40
2023-04-19T00:59:12.594Z,3.40
2023-04-19T01:01:53.887Z,3.10
2023-04-19T01:04:44.482Z,3.70
2023-04-19T01:07:18.192Z,3.00
2023-04-19T01:10:16.445Z,3.40
2023-04-19T01:12:53.426Z,4.10
2023-04-19T01:15:26.430Z,4.30
2023-04-19T01:18:00.289Z,4.30
2023-04-19T01:20:29.113Z,3.80
2023-04-19T01:23:24.782Z,3.40
2023-04-19T01:29:51.011Z,3.10
2023-04-19T01:32:29.043Z,3.80
2023-04-19T01:35:12.450Z,4.10
2023-04-19T01:38:06.497Z,3.70
2023-04-19T01:40:39.354Z,3.80
2023-04-19T01:43:19.592Z,4.00
2023-04-19T01:45:53.295Z,2.90
2023-04-19T01:48:29.391Z,3.60
2023-04-19T01:51:25.446Z,3.40
2023-04-19T01:54:00.392Z,4.40
2023-04-19T01:56:42.514Z,4.00
2023-04-19T01:59:17.352Z,3.70
2023-04-19T02:01:48.839Z,3.20
2023-04-19T02:04:24.076Z,3.60
2023-04-19T02:07:08.980Z,3.60
2023-04-19T02:09:39.062Z,3.50
2023-04-19T02:12:12.757Z,3.40
2023-04-19T02:14:49.655Z,3.30
2023-04-19T02:17:25.737Z,3.90
2023-04-19T02:20:27.329Z,4.00
2023-04-19T02:23:03.448Z,3.40
2023-04-19T02:25:38.551Z,3.60
2023-04-19T02:28:15.558Z,3.50
2023-04-19T02:31:14.908Z,4.10
2023-04-19T02:33:46.514Z,3.60
2023-04-19T02:36:19.502Z,3.40
2023-04-19T02:38:55.024Z,4.10
2023-04-19T02:41:36.640Z,3.30
2023-04-19T02:44:15.628Z,3.20
2023-04-19T02:46:55.477Z,3.80
2023-04-19T02:49:28.406Z,3.70
2023-04-19T02:52:02.907Z,3.60
2023-04-19T02:54:36.416Z,4.00
2023-04-19T02:57:16.666Z,3.20
2023-04-19T02:59:48.321Z,3.80
2023-04-19T03:02:22.208Z,3.20
2023-04-19T03:04:55.500Z,3.30
2023-04-19T03:07:30.090Z,3.40
2023-04-19T03:10:01.888Z,3.10
2023-04-19T03:12:43.685Z,3.10
2023-04-19T03:15:20.923Z,3.50
2023-04-19T03:17:57.025Z,3.70
2023-04-19T03:20:58.210Z,4.30
2023-04-19T03:23:52.567Z,4.20
2023-04-19T03:26:25.626Z,2.90
2023-04-19T03:29:05.292Z,4.50
2023-04-19T03:31:56.822Z,3.70
2023-04-19T03:34:33.318Z,3.70
2023-04-19T03:37:08.660Z,3.60
2023-04-19T03:39:38.990Z,3.90
2023-04-19T03:42:15.873Z,3.10
2023-04-19T03:45:27.453Z,3.70
2023-04-19T03:48:02.897Z,3.60
2023-04-19T03:50:47.119Z,3.40
2023-04-19T03:53:25.657Z,3.50
2023-04-19T03:56:03.402Z,3.70
2023-04-19T04:02:03.954Z,3.50
2023-04-19T04:04:46.897Z,3.70
2023-04-19T04:07:25.338Z,3.30
2023-04-19T04:10:50.958Z,3.20
2023-04-19T04:13:36.851Z,3.10
2023-04-19T04:20:01.432Z,3.10
2023-04-19T04:24:07.055Z,3.30
2023-04-19T04:26:52.064Z,3.50
2023-04-19T04:29:51.922Z,3.30
2023-04-19T04:32:29.277Z,3.50
2023-04-19T04:35:12.005Z,3.10
2023-04-19T04:37:51.241Z,3.70
2023-04-19T04:43:13.650Z,3.30
2023-04-19T04:45:56.563Z,3.10
2023-04-19T04:48:36.473Z,3.70
2023-04-19T04:51:16.090Z,3.40
2023-04-19T04:55:09.519Z,3.40
2023-04-19T04:57:54.018Z,3.30
2023-04-19T05:00:55.186Z,3.70
2023-04-19T05:03:57.460Z,3.40
2023-04-19T05:07:24.651Z,3.70
2023-04-19T05:10:04.032Z,2.80
2023-04-19T05:13:04.110Z,3.20
2023-04-19T05:15:51.546Z,3.30
2023-04-19T05:18:30.341Z,3.20
2023-04-19T05:21:52.790Z,3.30
2023-04-19T05:24:30.688Z,3.80
2023-04-19T05:27:30.317Z,3.60
2023-04-19T05:30:29.430Z,4.00
2023-04-19T05:33:27.722Z,3.60
2023-04-19T05:36:34.263Z,3.10
2023-04-19T05:39:28.269Z,3.60
2023-04-19T05:42:12.907Z,4.20
2023-04-19T05:46:12.180Z,3.50
2023-04-19T05:49:42.737Z,4.10
2023-04-19T05:52:51.978Z,3.30
2023-04-19T05:55:34.076Z,3.40
2023-04-19T05:58:53.260Z,4.10
2023-04-19T06:01:59.542Z,4.30
2023-04-19T06:05:23.039Z,3.50
2023-04-19T06:08:16.971Z,3.40
2023-04-19T06:11:51.572Z,3.30
2023-04-19T06:14:54.452Z,3.50
2023-04-19T06:17:34.513Z,3.50
2023-04-19T06:20:22.578Z,3.70
2023-04-19T06:23:18.813Z,4.10
2023-04-19T06:26:46.571Z,3.80
2023-04-19T06:30:04.397Z,3.60
2023-04-19T06:33:26.733Z,4.30
2023-04-19T06:36:20.229Z,3.50
2023-04-19T06:39:17.688Z,3.60
2023-04-19T06:42:20.082Z,3.20
2023-04-19T06:45:30.429Z,2.90
2023-04-19T06:50:40.296Z,4.10
2023-04-19T06:54:30.685Z,3.70
2023-04-19T06:58:15.347Z,3.10
2023-04-19T07:04:41.126Z,2.90
2023-04-19T07:07:46.284Z,4.10
2023-04-19T07:10:38.859Z,3.60
2023-04-19T07:13:17.925Z,3.40
2023-04-19T07:16:07.417Z,4.00
2023-04-19T07:18:54.634Z,3.60
2023-04-19T07:21:52.412Z,4.10
2023-04-19T07:24:53.359Z,3.70
2023-04-19T07:27:25.943Z,3.20
2023-04-19T07:34:11.578Z,4.30
2023-04-19T07:37:30.910Z,5.20
2023-04-19T07:40:09.351Z,4.50
2023-04-19T07:43:16.543Z,3.40
2023-04-19T07:50:37.787Z,3.70
2023-04-19T07:53:15.906Z,3.40
2023-04-19T07:56:24.563Z,3.80
2023-04-19T08:14:34.741Z,4.20
2023-04-19T08:20:34.032Z,3.30
2023-04-19T08:27:54.020Z,3.80
2023-04-19T08:30:43.104Z,4.40
2023-04-19T08:33:32.829Z,4.20
2023-04-19T08:37:00.280Z,3.60
2023-04-19T08:40:05.508Z,3.40
2023-04-19T08:42:50.838Z,4.00
2023-04-19T08:46:09.000Z,4.80
2023-04-19T08:54:10.358Z,4.70
2023-04-19T08:56:54.633Z,5.50
2023-04-19T08:59:30.368Z,4.40
2023-04-19T09:03:01.633Z,4.90
2023-04-19T09:05:46.025Z,4.90
2023-04-19T09:09:05.794Z,6.20
2023-04-19T09:12:10.344Z,4.90
2023-04-19T09:15:04.217Z,4.40
2023-04-19T09:19:19.473Z,3.80
2023-04-19T09:22:56.861Z,4.60
2023-04-19T09:29:36.697Z,3.90
2023-04-19T09:33:34.699Z,4.80
2023-04-19T09:36:09.887Z,4.80
2023-04-19T09:39:06.715Z,4.90
2023-04-19T09:42:58.809Z,5.00
2023-04-19T09:46:03.013Z,4.60
2023-04-19T09:52:57.729Z,6.00
2023-04-19T09:59:20.802Z,4.40
2023-04-19T10:02:20.354Z,5.00
2023-04-19T10:05:21.253Z,5.10
2023-04-19T10:08:15.060Z,4.30
2023-04-19T10:11:03.758Z,5.20
2023-04-19T10:18:37.272Z,5.40
2023-04-19T10:21:10.749Z,4.20
2023-04-19T10:24:15.439Z,5.30
2023-04-19T10:36:15.910Z,7.70
2023-04-19T10:39:07.403Z,5.80
2023-04-19T10:43:00.425Z,4.70
2023-04-19T10:45:56.174Z,4.60
2023-04-19T10:52:37.652Z,6.50
2023-04-19T10:56:29.891Z,5.60
2023-04-19T11:00:02.902Z,5.70
2023-04-19T11:02:40.995Z,5.20
2023-04-19T11:05:13.950Z,7.10
2023-04-19T11:08:05.849Z,5.20
2023-04-19T11:10:59.124Z,5.40
2023-04-19T11:14:06.864Z,6.40
2023-04-19T11:17:22.112Z,5.20
2023-04-19T11:20:48.795Z,5.00
2023-04-19T11:24:39.145Z,5.70
2023-04-19T11:27:11.212Z,5.40
2023-04-19T11:29:46.024Z,6.70
2023-04-19T11:32:28.380Z,6.10
2023-04-19T11:35:44.530Z,5.80
2023-04-19T11:39:50.865Z,6.20
2023-04-19T11:42:39.117Z,5.80
2023-04-19T11:45:44.085Z,4.90
2023-04-19T11:48:43.375Z,6.20
2023-04-19T11:51:47.800Z,6.00
2023-04-19T11:54:28.810Z,6.90
2023-04-19T11:57:54.404Z,6.10
2023-04-19T12:01:42.284Z,6.20
2023-04-19T12:05:19.625Z,7.10
2023-04-19T12:08:55.364Z,6.50
2023-04-19T12:13:20.442Z,5.40
2023-04-19T12:16:06.430Z,5.70
2023-04-19T12:24:44.558Z,5.30
2023-04-19T12:27:15.354Z,5.70
2023-04-19T12:29:45.042Z,6.90
2023-04-19T12:32:16.364Z,6.40
2023-04-19T12:34:48.218Z,6.10
2023-04-19T12:37:17.091Z,6.00
2023-04-19T12:39:45.934Z,6.40
2023-04-19T12:42:14.885Z,5.90
2023-04-19T12:44:43.344Z,6.10
2023-04-19T12:47:12.148Z,6.80
2023-04-19T12:49:40.719Z,5.40
2023-04-19T12:52:10.470Z,5.00
2023-04-19T12:54:39.526Z,5.50
2023-04-19T12:57:08.257Z,5.30
2023-04-19T12:59:37.412Z,5.80
2023-04-19T13:02:07.314Z,5.60
2023-04-19T13:04:36.776Z,8.40
2023-04-19T13:07:06.476Z,10.80
2023-04-19T13:09:36.085Z,6.30
2023-04-19T13:12:07.804Z,14.20
2023-04-19T13:14:37.415Z,6.20
2023-04-19T13:17:05.992Z,8.60
2023-04-19T13:19:35.116Z,16.30
2023-04-19T13:22:04.407Z,32.40
2023-04-19T13:24:33.041Z,29.80
2023-04-19T13:27:05.934Z,12.70
2023-04-19T13:29:36.953Z,27.10
2023-04-19T13:32:07.884Z,6.60
2023-04-19T13:34:36.620Z,7.20
2023-04-19T13:37:05.365Z,19.50
2023-04-19T13:39:35.158Z,7.30
2023-04-19T13:42:04.265Z,9.20
2023-04-19T13:44:35.121Z,13.70
2023-04-19T13:47:04.463Z,10.30
2023-04-19T13:49:35.794Z,6.70
2023-04-19T13:52:06.628Z,6.10
2023-04-19T13:54:36.840Z,6.70
2023-04-19T13:57:12.737Z,6.20
2023-04-19T13:59:42.676Z,5.00
2023-04-19T14:02:11.353Z,4.70
2023-04-19T14:04:40.312Z,4.60
2023-04-19T14:07:10.076Z,4.70
2023-04-19T14:09:39.064Z,4.90
2023-04-19T14:12:09.479Z,5.60
2023-04-19T14:14:41.429Z,5.80
2023-04-19T14:17:10.037Z,6.20
2023-04-19T14:19:39.076Z,5.20
2023-04-19T14:22:09.272Z,5.10
2023-04-19T14:24:41.337Z,6.90
2023-04-19T14:27:14.226Z,5.40
2023-04-19T14:29:57.621Z,4.60
2023-04-19T14:41:53.962Z,6.10
2023-04-19T14:50:23.626Z,5.60
2023-04-19T14:53:18.335Z,6.40
2023-04-19T15:06:48.874Z,7.50
2023-04-19T15:30:08.632Z,7.20
2023-04-19T15:38:21.525Z,6.20
2023-04-19T16:03:32.140Z,7.50
2023-04-19T16:29:25.649Z,6.80
2023-04-19T16:33:36.245Z,8.90
2023-04-19T16:37:20.614Z,7.70
2023-04-19T16:41:09.247Z,8.50
2023-04-19T16:53:52.844Z,7.70
2023-04-19T16:57:37.661Z,5.30
2023-04-19T17:05:40.891Z,7.50
2023-04-19T17:14:18.731Z,7.20
2023-04-19T17:17:15.871Z,6.50
2023-04-19T17:20:42.394Z,5.90
2023-04-19T17:27:48.569Z,4.80
2023-04-19T17:30:44.445Z,4.40
2023-04-19T17:42:37.174Z,4.70
2023-04-19T17:46:24.198Z,4.20
2023-04-19T17:49:43.693Z,4.50
2023-04-19T17:57:30.411Z,4.70
2023-04-19T18:04:38.699Z,4.10
2023-04-19T18:12:09.681Z,5.60
2023-04-19T18:15:06.811Z,4.90
2023-04-19T18:18:23.578Z,4.00
2023-04-19T18:22:05.222Z,4.80
2023-04-19T18:25:23.277Z,4.30
2023-04-19T18:29:23.934Z,4.40
2023-04-19T18:32:36.354Z,3.90
2023-04-19T18:40:42.372Z,4.50
2023-04-19T18:47:46.737Z,4.50
2023-04-19T18:50:40.542Z,5.20
2023-04-19T18:54:01.532Z,4.70
2023-04-19T18:59:52.483Z,5.60
2023-04-19T19:02:44.040Z,5.10
2023-04-19T19:08:33.438Z,4.90
2023-04-19T19:20:55.237Z,5.60
2023-04-19T19:24:15.366Z,5.20
2023-04-19T19:28:31.591Z,5.00
2023-04-19T19:36:24.112Z,5.10
2023-04-19T19:39:24.162Z,4.80
2023-04-19T19:52:27.417Z,5.70
2023-04-19T19:55:48.728Z,6.40
2023-04-19T19:59:02.295Z,5.10
2023-04-19T20:10:02.332Z,4.70
2023-04-19T20:13:45.342Z,5.70
2023-04-19T20:16:35.772Z,5.00
2023-04-19T20:22:39.750Z,5.70
2023-04-19T20:25:25.867Z,4.90
2023-04-19T20:28:56.652Z,4.60
2023-04-19T20:37:21.620Z,4.60
2023-04-19T20:41:04.095Z,4.60
2023-04-19T20:44:40.214Z,4.20
2023-04-19T20:48:04.922Z,4.80
2023-04-19T20:51:37.904Z,4.20
2023-04-19T20:54:21.890Z,4.80
2023-04-19T21:00:13.394Z,3.60
2023-04-19T21:08:29.996Z,4.50
2023-04-19T21:11:43.808Z,4.40
2023-04-19T21:14:38.365Z,3.80
2023-04-19T21:17:40.744Z,4.10
2023-04-19T21:20:26.146Z,4.10
2023-04-19T21:23:39.815Z,4.80
2023-04-19T21:26:44.072Z,4.10
2023-04-19T21:29:22.953Z,3.80
2023-04-19T21:32:26.857Z,3.40
2023-04-19T21:35:04.491Z,5.10
2023-04-19T21:37:48.904Z,4.30
2023-04-19T21:40:35.270Z,5.80
2023-04-19T21:43:19.298Z,4.40
2023-04-19T21:45:58.041Z,4.30
2023-04-19T21:49:14.217Z,4.50
2023-04-19T21:53:04.679Z,4.30
2023-04-19T21:56:04.032Z,5.00
2023-04-19T21:59:13.190Z,4.10
2023-04-19T22:02:09.142Z,4.30
2023-04-19T22:05:47.622Z,4.80
2023-04-19T22:08:52.239Z,4.10
2023-04-19T22:11:24.191Z,4.50
2023-04-19T22:14:03.197Z,3.90
2023-04-19T22:17:03.848Z,3.40
2023-04-19T22:19:44.898Z,4.20
2023-04-19T22:22:27.804Z,3.90
2023-04-19T22:25:00.160Z,4.10
2023-04-19T22:27:35.177Z,3.80
2023-04-19T22:30:18.631Z,5.20
2023-04-19T22:33:00.017Z,4.60
2023-04-19T22:35:46.857Z,4.80
2023-04-19T22:38:18.977Z,4.70
2023-04-19T22:41:15.289Z,4.20
2023-04-19T22:43:50.249Z,4.60
2023-04-19T22:47:03.701Z,4.50
2023-04-19T22:49:49.565Z,4.20
2023-04-19T22:52:26.207Z,6.60
2023-04-19T22:55:44.669Z,5.50
2023-04-19T22:58:27.115Z,4.30
2023-04-19T23:01:03.127Z,4.30
2023-04-19T23:04:10.196Z,3.70
2023-04-19T23:06:51.061Z,4.40
2023-04-19T23:09:32.786Z,5.10
2023-04-19T23:12:08.515Z,4.10
2023-04-19T23:18:24.218Z,5.40
2023-04-19T23:21:26.911Z,4.30
2023-04-19T23:27:03.494Z,4.00
2023-04-19T23:30:43.870Z,4.20
2023-04-19T23:33:29.405Z,3.60
2023-04-19T23:36:19.602Z,3.70
2023-04-19T23:39:10.550Z,4.00
2023-04-19T23:41:48.818Z,4.50
2023-04-19T23:44:51.188Z,3.90
2023-04-19T23:47:26.434Z,4.40
2023-04-19T23:50:03.412Z,4.30
2023-04-19T23:53:11.602Z,5.30
2023-04-19T23:55:53.027Z,4.60
2023-04-19T23:59:01.263Z,4.70
